Time;durP1;ratioP1;P1;durP2;ratioP2;P2;SDS_P1;SDS_P2;PMS_P1;PMS_P2;Temp;Humidity;BMP_temperature;BMP_pressure;BME280_temperature;BME280_humidity;BME280_pressure;Samples;Min_cycle;Max_cycle;Signal;HPM_P1;HPM_P2
2022/01/06 00:01:54;;;;;;;7.90;3.83;;;3.40;99.90;;;;;;5028698;28;20224;-73
2022/01/06 00:04:21;;;;;;;8.30;3.90;;;3.40;99.90;;;;;;5022581;28;20233;-73
2022/01/06 00:06:48;;;;;;;7.05;3.55;;;3.40;99.90;;;;;;5030261;28;20209;-73
2022/01/06 00:09:16;;;;;;;6.60;3.63;;;3.30;99.90;;;;;;5028491;28;20279;-73
2022/01/06 00:11:44;;;;;;;9.93;4.30;;;3.30;99.90;;;;;;5024478;28;20309;-73
2022/01/06 00:14:17;;;;;;;4.35;2.92;;;3.40;99.90;;;;;;5027094;28;20204;-73
2022/01/06 00:16:58;;;;;;;5.75;3.97;;;3.40;99.90;;;;;;5027426;28;20192;-73
2022/01/06 00:25:09;;;;;;;7.20;3.55;;;3.40;99.90;;;;;;4966339;28;20257;-73
2022/01/06 00:27:37;;;;;;;7.68;3.60;;;3.40;99.90;;;;;;4967566;28;20333;-73
2022/01/06 00:30:05;;;;;;;8.38;3.83;;;3.40;99.90;;;;;;4989183;28;20687;-73
2022/01/06 00:32:32;;;;;;;8.68;3.53;;;3.40;99.90;;;;;;5026711;28;20230;-73
2022/01/06 00:34:59;;;;;;;7.32;3.45;;;3.40;99.90;;;;;;5027274;28;20205;-73
2022/01/06 00:37:26;;;;;;;8.32;3.70;;;3.40;99.90;;;;;;5030549;28;20291;-72
2022/01/06 00:39:54;;;;;;;8.40;3.65;;;3.40;99.90;;;;;;5025264;28;20209;-73
2022/01/06 00:42:21;;;;;;;6.10;3.80;;;3.40;99.90;;;;;;5027033;28;20217;-73
2022/01/06 00:44:49;;;;;;;3.65;2.97;;;3.40;99.90;;;;;;5029254;28;20316;-73
2022/01/06 00:47:16;;;;;;;8.10;3.53;;;3.40;99.90;;;;;;5024526;28;20291;-73
2022/01/06 00:49:43;;;;;;;6.50;3.50;;;3.40;99.90;;;;;;5028362;28;20295;-73
2022/01/06 00:52:10;;;;;;;6.53;4.05;;;3.40;99.90;;;;;;5026469;28;20219;-72
2022/01/06 00:54:37;;;;;;;8.02;4.25;;;3.40;99.90;;;;;;5026347;28;20570;-73
2022/01/06 00:57:04;;;;;;;6.47;3.33;;;3.40;99.90;;;;;;5028618;28;20204;-73
2022/01/06 00:59:31;;;;;;;6.28;3.78;;;3.40;99.90;;;;;;5027702;28;20290;-73
2022/01/06 01:01:59;;;;;;;11.02;3.90;;;3.40;99.90;;;;;;5024041;28;20223;-73
2022/01/06 01:04:26;;;;;;;4.95;3.15;;;3.40;99.90;;;;;;5021866;28;20582;-73
2022/01/06 01:06:53;;;;;;;6.45;3.63;;;3.40;99.90;;;;;;5022043;28;20589;-72
2022/01/06 01:09:20;;;;;;;10.00;4.13;;;3.40;99.90;;;;;;5025909;28;20297;-72
2022/01/06 01:11:47;;;;;;;7.50;3.85;;;3.50;99.90;;;;;;5026381;28;20219;-72
2022/01/06 01:14:22;;;;;;;7.20;4.22;;;3.60;99.90;;;;;;5027346;28;20681;-72
2022/01/06 01:16:54;;;;;;;7.72;3.95;;;3.60;99.90;;;;;;5026340;28;20196;-73
2022/01/06 01:19:23;;;;;;;5.45;3.72;;;3.70;99.90;;;;;;5025398;28;20269;-73
2022/01/06 01:21:51;;;;;;;6.10;3.65;;;3.80;99.90;;;;;;5024141;28;20219;-73
2022/01/06 01:24:18;;;;;;;6.47;3.60;;;3.80;99.90;;;;;;5031229;28;20306;-73
2022/01/06 01:26:45;;;;;;;8.35;3.80;;;3.80;99.90;;;;;;5033046;28;20197;-73
2022/01/06 01:29:16;;;;;;;7.45;3.45;;;3.80;99.90;;;;;;5026821;28;20293;-73
2022/01/06 01:31:46;;;;;;;5.90;3.65;;;3.70;99.90;;;;;;5030139;28;20366;-73
2022/01/06 01:34:16;;;;;;;6.95;4.50;;;3.70;99.90;;;;;;5026944;28;20406;-73
2022/01/06 01:36:44;;;;;;;8.25;4.20;;;3.70;99.90;;;;;;5031640;28;20204;-73
2022/01/06 01:39:11;;;;;;;5.40;3.80;;;3.70;99.90;;;;;;5031063;28;20197;-72
2022/01/06 01:41:38;;;;;;;8.45;4.30;;;3.60;99.90;;;;;;5030720;28;20220;-73
2022/01/06 01:44:12;;;;;;;7.30;5.28;;;3.60;99.90;;;;;;5031022;28;20242;-74
2022/01/06 01:46:43;;;;;;;7.20;4.18;;;3.60;99.90;;;;;;5018216;28;20288;-73
2022/01/06 01:49:28;;;;;;;7.32;4.38;;;3.60;99.90;;;;;;5030511;28;20215;-73
2022/01/06 01:51:56;;;;;;;6.75;4.35;;;3.60;99.90;;;;;;5030425;28;20223;-73
2022/01/06 01:54:23;;;;;;;11.10;4.75;;;3.60;99.90;;;;;;5030457;28;20332;-72
2022/01/06 01:56:52;;;;;;;5.05;3.75;;;3.60;99.90;;;;;;5030561;28;20200;-72
2022/01/06 01:59:19;;;;;;;5.70;3.95;;;3.60;99.90;;;;;;5030915;28;20565;-72
2022/01/06 02:01:46;;;;;;;5.45;4.00;;;3.70;99.90;;;;;;5031090;28;20322;-72
2022/01/06 02:04:15;;;;;;;5.63;3.85;;;3.70;99.90;;;;;;5005917;28;20224;-73
2022/01/06 02:06:42;;;;;;;7.38;4.50;;;3.80;99.90;;;;;;5011215;28;20229;-72
2022/01/06 02:09:10;;;;;;;7.38;3.55;;;3.80;99.90;;;;;;5010452;28;20224;-73
2022/01/06 02:11:37;;;;;;;6.65;3.80;;;3.80;99.90;;;;;;5001410;28;20225;-72
2022/01/06 02:14:06;;;;;;;4.82;3.40;;;3.70;99.90;;;;;;5009748;28;20204;-72
2022/01/06 02:16:33;;;;;;;10.50;4.90;;;3.70;99.90;;;;;;5009639;28;20291;-73
2022/01/06 02:19:00;;;;;;;9.43;4.00;;;3.70;99.90;;;;;;5007929;28;20711;-72
2022/01/06 02:21:29;;;;;;;6.90;4.35;;;3.60;99.90;;;;;;5009471;28;20306;-72
2022/01/06 02:23:56;;;;;;;9.48;4.13;;;3.70;99.90;;;;;;5011799;28;20216;-72
2022/01/06 02:26:23;;;;;;;6.30;4.15;;;3.60;99.90;;;;;;5011043;28;20206;-72
2022/01/06 02:28:50;;;;;;;9.73;3.92;;;3.60;99.90;;;;;;5009129;28;20198;-72
2022/01/06 02:31:17;;;;;;;9.25;3.97;;;3.60;99.90;;;;;;5004960;28;20220;-73
2022/01/06 02:33:44;;;;;;;9.65;4.40;;;3.60;99.90;;;;;;5011890;28;20200;-72
2022/01/06 02:36:12;;;;;;;5.15;4.13;;;3.60;99.90;;;;;;5008012;28;20682;-72
2022/01/06 02:38:40;;;;;;;4.72;3.97;;;3.60;99.90;;;;;;5008671;28;20220;-72
2022/01/06 02:41:07;;;;;;;6.93;3.72;;;3.70;99.90;;;;;;5000687;28;20220;-72
2022/01/06 02:43:35;;;;;;;11.00;4.50;;;3.70;99.90;;;;;;5008312;28;20291;-72
2022/01/06 02:46:02;;;;;;;5.45;3.88;;;3.70;99.90;;;;;;5010195;28;20228;-73
2022/01/06 02:48:29;;;;;;;7.50;4.40;;;3.70;99.90;;;;;;5009802;28;20224;-72
2022/01/06 02:50:56;;;;;;;5.72;3.95;;;3.70;99.90;;;;;;5009052;28;20302;-73
2022/01/06 02:53:23;;;;;;;7.03;4.15;;;3.70;99.90;;;;;;5010436;28;20653;-72
2022/01/06 02:55:53;;;;;;;5.95;3.83;;;3.70;99.90;;;;;;5011068;28;20289;-73
2022/01/06 02:58:21;;;;;;;7.40;4.38;;;3.70;99.90;;;;;;5009825;28;20195;-72
2022/01/06 03:00:49;;;;;;;5.80;3.65;;;3.70;99.90;;;;;;5004660;28;20312;-72
2022/01/06 03:03:16;;;;;;;6.35;4.03;;;3.70;99.90;;;;;;5007234;28;20208;-73
2022/01/06 03:05:43;;;;;;;6.38;4.10;;;3.80;99.90;;;;;;5028488;28;20234;-73
2022/01/06 03:08:10;;;;;;;6.15;3.60;;;3.80;99.90;;;;;;5025317;28;20200;-72
2022/01/06 03:10:41;;;;;;;5.38;4.40;;;3.80;99.90;;;;;;5024743;28;20585;-77
2022/01/06 03:13:10;;;;;;;9.40;3.70;;;3.80;99.90;;;;;;5029246;28;20282;-72
2022/01/06 03:15:37;;;;;;;8.43;3.90;;;3.80;99.90;;;;;;5026380;28;20207;-72
2022/01/06 03:18:04;;;;;;;5.18;3.63;;;3.80;99.90;;;;;;5021929;28;20597;-73
2022/01/06 03:20:31;;;;;;;5.63;3.90;;;3.80;99.90;;;;;;5022596;28;20198;-72
2022/01/06 03:22:59;;;;;;;5.57;3.63;;;3.70;99.90;;;;;;5022764;28;20227;-72
2022/01/06 03:25:25;;;;;;;7.28;4.43;;;3.70;99.90;;;;;;5029489;28;20231;-73
2022/01/06 03:27:52;;;;;;;6.65;3.80;;;3.70;99.90;;;;;;5026842;28;20218;-72
2022/01/06 03:30:23;;;;;;;5.97;4.10;;;3.60;99.90;;;;;;5024162;28;20403;-72
2022/01/06 03:32:51;;;;;;;6.40;3.75;;;3.60;99.90;;;;;;5027170;28;20655;-72
2022/01/06 03:35:22;;;;;;;6.20;3.80;;;3.60;99.90;;;;;;5027638;28;20229;-72
2022/01/06 03:37:49;;;;;;;6.20;4.15;;;3.70;99.90;;;;;;5027152;28;20196;-72
2022/01/06 03:40:16;;;;;;;5.20;3.90;;;3.70;99.90;;;;;;5029512;28;20200;-72
2022/01/06 03:42:44;;;;;;;7.35;4.13;;;3.60;99.90;;;;;;5029447;28;20199;-72
2022/01/06 03:45:12;;;;;;;5.45;4.05;;;3.60;99.90;;;;;;5029298;28;20256;-73
2022/01/06 03:47:41;;;;;;;7.40;4.80;;;3.60;99.90;;;;;;5028633;28;20254;-72
2022/01/06 03:50:09;;;;;;;5.45;3.83;;;3.60;99.90;;;;;;5027872;28;20206;-72
2022/01/06 03:52:36;;;;;;;6.95;4.50;;;3.70;99.90;;;;;;5029872;28;20216;-72
2022/01/06 03:55:05;;;;;;;6.30;4.50;;;3.50;99.90;;;;;;5028658;28;20210;-72
2022/01/06 03:57:32;;;;;;;6.70;4.03;;;3.50;99.90;;;;;;5030477;28;20203;-72
2022/01/06 03:59:59;;;;;;;5.78;4.30;;;3.50;99.90;;;;;;5028175;28;20193;-73
2022/01/06 04:02:26;;;;;;;7.90;4.20;;;3.40;99.90;;;;;;5027484;28;20226;-72
2022/01/06 04:04:55;;;;;;;8.45;4.50;;;3.50;99.90;;;;;;5026624;28;20220;-72
2022/01/06 04:07:21;;;;;;;6.40;4.03;;;3.40;99.90;;;;;;5027774;28;20582;-72
2022/01/06 04:09:49;;;;;;;9.40;4.25;;;3.40;99.90;;;;;;5029778;28;20700;-72
2022/01/06 04:12:16;;;;;;;6.90;4.85;;;3.50;99.90;;;;;;5027523;28;20224;-71
2022/01/06 04:14:43;;;;;;;7.00;4.53;;;3.50;99.90;;;;;;5028668;28;20293;-72
2022/01/06 04:17:10;;;;;;;8.57;4.93;;;3.50;99.90;;;;;;5026669;28;20201;-72
2022/01/06 04:19:37;;;;;;;10.35;4.40;;;3.50;99.90;;;;;;5030140;28;20211;-72
2022/01/06 04:22:06;;;;;;;6.63;4.60;;;3.50;99.90;;;;;;5027816;28;20227;-73
2022/01/06 04:24:33;;;;;;;5.13;4.45;;;3.50;99.90;;;;;;5029306;28;20202;-72
2022/01/06 04:27:00;;;;;;;6.75;4.35;;;3.50;99.90;;;;;;5026342;28;20251;-72
2022/01/06 04:29:27;;;;;;;6.75;4.68;;;3.50;99.90;;;;;;5026172;28;20566;-72
2022/01/06 04:31:55;;;;;;;7.35;4.72;;;3.50;99.90;;;;;;5029214;28;20301;-72
2022/01/06 04:34:22;;;;;;;8.52;4.60;;;3.50;99.90;;;;;;5024692;28;20200;-72
2022/01/06 04:36:53;;;;;;;6.65;4.35;;;3.50;99.90;;;;;;5027591;28;20297;-72
2022/01/06 04:39:21;;;;;;;8.32;4.65;;;3.50;99.90;;;;;;5029149;28;20209;-73
2022/01/06 04:41:48;;;;;;;7.35;4.80;;;3.60;99.90;;;;;;5025718;28;20307;-72
2022/01/06 04:44:15;;;;;;;6.80;4.65;;;3.50;99.90;;;;;;5027499;28;20552;-73
2022/01/06 04:46:42;;;;;;;11.20;4.45;;;3.50;99.90;;;;;;5028674;28;20602;-73
2022/01/06 04:49:10;;;;;;;7.60;4.55;;;3.50;99.90;;;;;;5027986;28;20205;-72
2022/01/06 04:51:37;;;;;;;10.48;5.10;;;3.50;99.90;;;;;;5022511;28;20715;-73
2022/01/06 04:54:04;;;;;;;8.95;5.32;;;3.50;99.90;;;;;;5027812;28;20296;-72
2022/01/06 04:56:36;;;;;;;8.35;4.80;;;3.50;99.90;;;;;;5025556;28;20254;-73
2022/01/06 04:59:05;;;;;;;7.43;4.38;;;3.60;99.90;;;;;;5029649;28;20256;-73
2022/01/06 05:01:32;;;;;;;10.52;5.68;;;3.60;99.90;;;;;;5029984;28;20223;-73
2022/01/06 05:03:59;;;;;;;4.90;4.38;;;3.60;99.90;;;;;;5031293;28;20290;-73
2022/01/06 05:06:26;;;;;;;9.43;5.43;;;3.60;99.90;;;;;;5022885;28;20230;-72
2022/01/06 05:08:53;;;;;;;8.50;4.38;;;3.50;99.90;;;;;;5022920;28;20197;-73
2022/01/06 05:11:21;;;;;;;6.40;4.35;;;3.40;99.90;;;;;;5017888;28;20226;-73
2022/01/06 05:13:50;;;;;;;7.70;4.80;;;3.40;99.90;;;;;;5029764;28;20611;-73
2022/01/06 05:16:17;;;;;;;5.43;4.10;;;3.40;99.90;;;;;;5031844;28;20298;-74
2022/01/06 05:18:44;;;;;;;7.40;4.43;;;3.40;99.90;;;;;;5032124;28;20708;-74
2022/01/06 05:21:11;;;;;;;9.50;4.65;;;3.30;99.90;;;;;;5028515;28;20705;-74
2022/01/06 05:23:39;;;;;;;7.40;5.00;;;3.40;99.90;;;;;;5030346;28;20203;-73
2022/01/06 05:26:06;;;;;;;8.15;4.82;;;3.40;99.90;;;;;;5030803;28;20231;-74
2022/01/06 05:28:32;;;;;;;8.95;4.40;;;3.40;99.90;;;;;;5029163;28;20666;-74
2022/01/06 05:31:01;;;;;;;6.72;4.32;;;3.50;99.90;;;;;;5031179;28;20246;-73
2022/01/06 05:33:28;;;;;;;6.38;4.47;;;3.50;99.90;;;;;;5029413;28;20206;-74
2022/01/06 05:35:55;;;;;;;6.95;4.22;;;3.50;99.90;;;;;;5032601;28;20201;-73
2022/01/06 05:38:22;;;;;;;6.90;4.22;;;3.50;99.90;;;;;;5028886;28;20201;-73
2022/01/06 05:40:49;;;;;;;6.40;4.10;;;3.50;99.90;;;;;;5030063;28;20657;-73
2022/01/06 05:43:19;;;;;;;8.68;4.78;;;3.50;99.90;;;;;;5029832;28;20606;-73
2022/01/06 05:45:46;;;;;;;4.60;3.40;;;3.40;99.90;;;;;;5031855;28;20749;-73
2022/01/06 05:48:14;;;;;;;5.38;4.07;;;3.60;99.90;;;;;;5032364;28;20226;-73
2022/01/06 05:50:41;;;;;;;5.88;4.70;;;3.60;99.90;;;;;;5028590;28;20217;-73
2022/01/06 05:53:09;;;;;;;4.80;3.53;;;3.70;99.90;;;;;;5023598;28;20276;-73
2022/01/06 05:55:35;;;;;;;9.85;4.47;;;3.70;99.90;;;;;;5028487;28;20339;-72
2022/01/06 05:58:02;;;;;;;5.93;4.05;;;3.70;99.90;;;;;;5032042;28;20716;-73
2022/01/06 06:00:29;;;;;;;6.75;4.00;;;3.70;99.90;;;;;;5028424;28;20271;-73
2022/01/06 06:02:56;;;;;;;6.25;4.30;;;3.70;99.90;;;;;;5029624;28;20203;-73
2022/01/06 06:05:25;;;;;;;9.80;3.70;;;3.70;99.90;;;;;;5031185;28;20694;-73
2022/01/06 06:07:52;;;;;;;5.97;4.00;;;3.70;99.90;;;;;;5027010;28;20204;-73
2022/01/06 06:10:19;;;;;;;8.68;4.43;;;3.70;99.90;;;;;;5029545;28;20228;-72
2022/01/06 06:12:48;;;;;;;4.95;4.00;;;3.70;99.90;;;;;;5030452;28;20204;-73
2022/01/06 06:15:15;;;;;;;5.88;4.22;;;3.70;99.90;;;;;;5030742;28;20668;-73
2022/01/06 06:17:43;;;;;;;12.15;4.32;;;3.70;99.90;;;;;;5030980;28;20207;-74
2022/01/06 06:20:11;;;;;;;5.90;4.38;;;3.70;99.90;;;;;;5026673;28;20705;-73
2022/01/06 06:22:39;;;;;;;10.50;5.30;;;3.70;99.90;;;;;;5027874;28;20303;-73
2022/01/06 06:25:07;;;;;;;6.43;4.07;;;3.70;99.90;;;;;;5023682;28;20207;-73
2022/01/06 06:27:34;;;;;;;7.55;4.63;;;3.70;99.90;;;;;;5023413;28;20667;-74
2022/01/06 06:30:01;;;;;;;9.82;4.53;;;3.70;99.90;;;;;;5019920;28;20707;-74
2022/01/06 06:32:28;;;;;;;7.38;5.10;;;3.70;99.90;;;;;;5027463;28;20651;-73
2022/01/06 06:34:55;;;;;;;9.60;4.88;;;3.90;99.90;;;;;;5031636;28;20202;-74
2022/01/06 06:37:22;;;;;;;8.05;4.63;;;3.90;99.90;;;;;;5030733;28;20211;-74
2022/01/06 06:39:51;;;;;;;8.07;4.57;;;3.90;99.90;;;;;;5031917;28;20197;-72
2022/01/06 06:42:18;;;;;;;4.80;4.10;;;3.80;99.90;;;;;;5031063;28;20223;-73
2022/01/06 06:44:45;;;;;;;10.10;4.65;;;3.80;99.90;;;;;;5030685;28;20203;-73
2022/01/06 06:47:11;;;;;;;9.20;5.20;;;3.70;99.90;;;;;;5029219;28;20230;-73
2022/01/06 06:49:38;;;;;;;5.65;4.97;;;3.60;99.90;;;;;;5022229;28;20226;-74
2022/01/06 06:52:06;;;;;;;8.13;5.30;;;3.60;99.90;;;;;;5021761;28;20300;-74
2022/01/06 06:54:33;;;;;;;6.20;4.65;;;3.50;99.90;;;;;;5024543;28;20291;-73
2022/01/06 06:57:01;;;;;;;11.07;5.40;;;3.40;99.90;;;;;;5020343;28;20208;-74
2022/01/06 06:59:28;;;;;;;10.75;5.40;;;3.40;99.90;;;;;;5019763;28;20207;-74
2022/01/06 07:01:55;;;;;;;5.70;4.97;;;3.30;99.90;;;;;;5026912;28;20220;-73
2022/01/06 07:04:22;;;;;;;9.98;5.50;;;3.30;99.90;;;;;;5029066;28;20314;-74
2022/01/06 07:06:49;;;;;;;5.30;4.80;;;3.20;99.90;;;;;;5029651;28;20297;-74
2022/01/06 07:09:16;;;;;;;7.13;5.60;;;3.20;99.90;;;;;;5028918;28;20198;-74
2022/01/06 07:11:43;;;;;;;9.43;5.32;;;3.20;99.90;;;;;;5030738;28;20381;-74
2022/01/06 07:14:12;;;;;;;8.60;5.63;;;3.20;99.90;;;;;;5031465;28;20198;-73
2022/01/06 07:16:39;;;;;;;8.02;5.70;;;3.10;99.90;;;;;;5028424;28;20235;-73
2022/01/06 07:19:05;;;;;;;8.98;5.40;;;3.10;99.90;;;;;;5029009;28;20562;-74
2022/01/06 07:21:32;;;;;;;8.57;6.10;;;3.10;99.90;;;;;;5027483;28;20222;-73
2022/01/06 07:23:59;;;;;;;10.63;6.07;;;3.10;99.90;;;;;;5026663;28;20205;-74
2022/01/06 07:26:26;;;;;;;9.93;6.55;;;3.10;99.90;;;;;;5028361;28;20303;-74
2022/01/06 07:28:53;;;;;;;10.30;5.90;;;3.10;99.90;;;;;;5028797;28;20206;-74
2022/01/06 07:31:21;;;;;;;10.50;5.95;;;3.10;99.90;;;;;;5029722;28;20219;-74
2022/01/06 07:33:48;;;;;;;9.38;5.93;;;3.00;99.90;;;;;;5022178;28;20205;-73
2022/01/06 07:36:15;;;;;;;9.02;5.53;;;3.00;99.90;;;;;;5020161;28;20281;-74
2022/01/06 07:38:42;;;;;;;12.00;6.90;;;3.00;99.90;;;;;;5023540;28;20807;-74
2022/01/06 07:41:09;;;;;;;8.07;6.07;;;3.00;99.90;;;;;;5024640;28;20225;-74
2022/01/06 07:43:37;;;;;;;9.35;6.53;;;3.00;99.90;;;;;;5022209;28;20229;-75
2022/01/06 07:46:04;;;;;;;10.90;5.95;;;3.00;99.90;;;;;;5024080;28;20690;-73
2022/01/06 07:48:48;;;;;;;10.38;6.30;;;3.00;99.90;;;;;;5027968;28;20202;-74
2022/01/06 07:51:15;;;;;;;10.00;6.85;;;3.00;99.90;;;;;;5023451;28;20220;-72
2022/01/06 07:53:42;;;;;;;11.27;6.30;;;3.00;99.90;;;;;;5026754;28;20192;-73
2022/01/06 07:56:09;;;;;;;10.48;7.10;;;3.00;99.90;;;;;;5028771;28;20203;-79
2022/01/06 07:58:36;;;;;;;8.30;6.82;;;3.00;99.90;;;;;;5029274;28;20200;-81
2022/01/06 08:01:03;;;;;;;10.63;7.70;;;3.10;99.90;;;;;;5024954;28;20339;-81
2022/01/06 08:03:31;;;;;;;9.02;6.50;;;3.20;99.90;;;;;;5025590;28;20218;-78
2022/01/06 08:05:58;;;;;;;8.93;5.95;;;3.20;99.90;;;;;;5024280;28;20224;-80
2022/01/06 08:08:25;;;;;;;9.57;7.30;;;3.30;99.90;;;;;;5028002;28;20630;-74
2022/01/06 08:10:52;;;;;;;8.85;6.63;;;3.40;99.90;;;;;;5019378;28;20224;-74
2022/01/06 08:13:19;;;;;;;8.18;6.32;;;3.50;99.90;;;;;;5016441;28;20206;-75
2022/01/06 08:15:46;;;;;;;10.00;7.13;;;3.60;99.90;;;;;;5018869;28;20204;-73
2022/01/06 08:18:13;;;;;;;7.18;6.32;;;3.80;99.90;;;;;;5020542;28;20192;-74
2022/01/06 08:20:42;;;;;;;12.85;7.47;;;3.80;99.90;;;;;;5020169;28;20620;-74
2022/01/06 08:23:09;;;;;;;11.32;6.65;;;3.90;99.90;;;;;;5022789;28;20200;-72
2022/01/06 08:25:38;;;;;;;9.48;6.95;;;4.00;99.90;;;;;;5024489;28;20216;-73
2022/01/06 08:28:05;;;;;;;8.00;6.45;;;4.10;99.90;;;;;;5024021;28;20736;-73
2022/01/06 08:30:32;;;;;;;10.82;6.10;;;4.20;99.90;;;;;;5022396;28;20221;-73
2022/01/06 08:32:59;;;;;;;7.78;6.40;;;4.10;99.90;;;;;;5029092;28;20613;-73
2022/01/06 08:35:27;;;;;;;11.25;7.00;;;4.20;99.90;;;;;;5023612;28;20371;-73
2022/01/06 08:37:56;;;;;;;10.18;6.45;;;4.20;99.90;;;;;;5028286;28;20208;-73
2022/01/06 08:40:22;;;;;;;10.05;6.85;;;4.20;99.90;;;;;;5031282;28;20221;-73
2022/01/06 08:42:50;;;;;;;9.73;6.80;;;4.30;99.90;;;;;;5031671;28;20403;-73
2022/01/06 08:45:17;;;;;;;7.38;6.32;;;4.30;99.90;;;;;;5030850;28;20659;-73
2022/01/06 08:47:44;;;;;;;9.90;6.15;;;4.30;99.90;;;;;;5028486;28;20323;-73
2022/01/06 08:50:12;;;;;;;9.38;6.45;;;4.50;99.90;;;;;;5030786;28;20227;-73
2022/01/06 08:52:40;;;;;;;9.75;6.10;;;4.90;99.90;;;;;;5028969;28;20645;-74
2022/01/06 08:55:10;;;;;;;8.70;5.38;;;5.10;99.90;;;;;;5029893;28;20578;-73
2022/01/06 08:57:38;;;;;;;11.68;6.38;;;5.00;99.90;;;;;;5025991;28;20647;-73
2022/01/06 09:00:09;;;;;;;7.82;6.00;;;5.00;99.90;;;;;;5024788;28;22358;-74
2022/01/06 09:02:36;;;;;;;9.07;5.82;;;5.00;99.90;;;;;;5022870;28;20317;-74
2022/01/06 09:05:06;;;;;;;8.68;5.97;;;5.00;99.90;;;;;;5021352;28;20205;-74
2022/01/06 09:07:33;;;;;;;7.30;6.25;;;5.20;99.90;;;;;;5021241;28;20233;-74
2022/01/06 09:10:00;;;;;;;4.97;4.50;;;5.70;99.90;;;;;;5032821;28;20233;-74
2022/01/06 09:12:28;;;;;;;5.90;4.35;;;6.30;99.90;;;;;;5029225;28;20344;-74
2022/01/06 09:14:55;;;;;;;5.53;4.25;;;6.50;99.90;;;;;;5026503;28;20687;-74
2022/01/06 09:17:22;;;;;;;6.50;4.10;;;6.50;99.90;;;;;;5028110;28;20206;-74
2022/01/06 09:19:50;;;;;;;7.60;4.30;;;6.80;99.90;;;;;;5022884;28;20261;-73
2022/01/06 09:22:17;;;;;;;6.40;4.25;;;7.40;99.90;;;;;;5021561;28;20201;-75
2022/01/06 09:24:44;;;;;;;7.15;4.38;;;8.30;99.90;;;;;;5023493;28;20205;-74
2022/01/06 09:27:11;;;;;;;6.13;3.58;;;9.20;99.90;;;;;;5027008;28;20227;-73
2022/01/06 09:29:39;;;;;;;5.70;3.60;;;9.60;99.90;;;;;;5028202;28;20312;-81
2022/01/06 09:32:06;;;;;;;6.50;4.10;;;10.00;99.90;;;;;;5020659;28;20231;-74
2022/01/06 09:34:34;;;;;;;4.90;3.30;;;10.20;99.90;;;;;;5011226;28;20208;-73
2022/01/06 09:37:01;;;;;;;7.00;3.47;;;10.50;99.90;;;;;;5012352;28;20220;-79
2022/01/06 09:39:27;;;;;;;6.60;3.35;;;10.90;99.90;;;;;;5017689;28;20214;-79
2022/01/06 09:41:55;;;;;;;6.50;3.42;;;11.20;99.90;;;;;;5014106;28;20202;-78
2022/01/06 09:44:22;;;;;;;4.55;3.53;;;11.50;99.90;;;;;;5015117;28;20204;-76
2022/01/06 09:46:51;;;;;;;7.80;3.60;;;11.10;99.90;;;;;;5016338;28;21174;-76
2022/01/06 09:49:18;;;;;;;6.97;3.92;;;10.30;99.90;;;;;;5014103;28;20222;-76
2022/01/06 09:51:46;;;;;;;4.78;3.10;;;9.50;99.90;;;;;;5014401;28;20267;-75
2022/01/06 09:54:14;;;;;;;6.45;3.80;;;8.90;99.90;;;;;;5017344;28;20284;-76
2022/01/06 09:56:41;;;;;;;7.13;3.40;;;8.40;99.90;;;;;;5015673;28;20209;-75
2022/01/06 09:59:08;;;;;;;5.05;3.83;;;7.80;99.90;;;;;;5009620;28;20283;-75
2022/01/06 10:01:35;;;;;;;4.88;3.42;;;7.10;99.90;;;;;;5008980;28;20208;-76
2022/01/06 10:04:05;;;;;;;5.95;3.72;;;6.90;99.90;;;;;;5025316;28;20212;-76
2022/01/06 10:06:32;;;;;;;6.65;3.97;;;6.70;99.90;;;;;;5029525;28;20635;-80
2022/01/06 10:09:02;;;;;;;5.78;3.17;;;7.00;99.90;;;;;;5025818;28;20198;-75
2022/01/06 10:11:31;;;;;;;7.00;3.42;;;7.20;99.90;;;;;;5017548;28;20665;-75
2022/01/06 10:14:03;;;;;;;6.70;3.75;;;7.30;99.90;;;;;;5023028;28;22015;-75
2022/01/06 10:16:30;;;;;;;7.60;3.70;;;7.40;99.90;;;;;;5010867;28;20198;-75
2022/01/06 10:19:01;;;;;;;5.25;3.28;;;7.30;99.90;;;;;;5011921;28;20197;-73
2022/01/06 10:21:33;;;;;;;6.63;3.20;;;7.30;99.90;;;;;;5020568;28;20244;-75
2022/01/06 10:24:08;;;;;;;5.68;3.70;;;7.40;99.90;;;;;;5028064;28;20679;-75
2022/01/06 10:26:35;;;;;;;5.05;3.05;;;7.70;99.90;;;;;;5016468;28;20198;-75
2022/01/06 10:29:07;;;;;;;5.43;3.70;;;8.20;99.90;;;;;;5018468;28;20224;-75
2022/01/06 10:31:34;;;;;;;4.38;2.95;;;8.40;99.90;;;;;;5021493;28;20211;-75
2022/01/06 10:34:08;;;;;;;5.45;3.03;;;9.00;99.90;;;;;;5024139;28;20204;-75
2022/01/06 10:36:37;;;;;;;4.65;3.33;;;9.80;99.90;;;;;;5022290;28;21236;-75
2022/01/06 10:39:08;;;;;;;4.60;2.75;;;10.80;99.90;;;;;;5031967;28;20307;-75
2022/01/06 10:41:38;;;;;;;4.20;2.85;;;11.60;99.90;;;;;;5028270;28;20203;-74
2022/01/06 10:44:08;;;;;;;6.18;3.08;;;11.50;99.90;;;;;;5023632;28;20199;-75
2022/01/06 10:46:37;;;;;;;6.47;2.75;;;10.70;99.90;;;;;;5015593;28;20316;-73
2022/01/06 10:49:06;;;;;;;6.93;3.00;;;9.90;99.90;;;;;;5029309;28;20234;-78
2022/01/06 10:51:46;;;;;;;8.23;2.80;;;9.10;99.90;;;;;;5044996;28;20197;-77
2022/01/06 10:54:16;;;;;;;6.00;2.92;;;8.60;99.90;;;;;;5033571;28;20312;-75
2022/01/06 10:56:55;;;;;;;5.38;2.72;;;8.10;99.90;;;;;;5038390;28;20198;-75
2022/01/06 10:59:25;;;;;;;8.77;3.47;;;7.70;99.90;;;;;;5036658;28;20214;-76
2022/01/06 11:01:51;;;;;;;7.78;3.00;;;7.30;99.90;;;;;;5042239;28;20221;-76
2022/01/06 11:04:18;;;;;;;9.85;2.80;;;6.90;99.90;;;;;;5032885;28;20224;-76
2022/01/06 11:06:47;;;;;;;7.60;3.20;;;6.60;99.90;;;;;;5036382;28;20280;-75
2022/01/06 11:09:14;;;;;;;5.65;3.20;;;6.40;99.90;;;;;;5034974;28;20365;-74
2022/01/06 11:12:26;;;;;;;3.00;2.38;;;6.20;99.90;;;;;;5022927;28;20256;-76
2022/01/06 11:14:33;;;;;;;5.78;2.60;;;6.20;99.90;;;;;;5027651;28;20207;-76
2022/01/06 11:17:00;;;;;;;5.20;2.50;;;6.90;99.90;;;;;;5029638;28;20554;-76
2022/01/06 11:19:29;;;;;;;4.60;2.72;;;7.80;99.90;;;;;;5029260;28;20302;-76
2022/01/06 11:22:03;;;;;;;5.65;2.45;;;8.90;99.90;;;;;;5022401;28;20204;-75
2022/01/06 11:24:30;;;;;;;6.10;2.30;;;9.80;99.90;;;;;;5029359;28;20655;-75
2022/01/06 11:27:00;;;;;;;5.68;2.40;;;10.50;99.90;;;;;;5029782;28;20298;-75
2022/01/06 11:29:29;;;;;;;6.68;2.45;;;10.80;99.90;;;;;;5027407;28;20720;-77
2022/01/06 11:31:56;;;;;;;5.35;2.30;;;11.10;99.90;;;;;;5016302;28;20204;-76
2022/01/06 11:34:23;;;;;;;4.63;2.05;;;11.20;99.90;;;;;;5013752;28;20229;-78
2022/01/06 11:36:52;;;;;;;5.40;2.50;;;11.60;99.90;;;;;;5023715;28;20232;-77
2022/01/06 11:39:26;;;;;;;5.20;2.00;;;12.20;99.90;;;;;;5021123;28;20210;-76
2022/01/06 11:41:54;;;;;;;5.10;2.05;;;12.50;99.90;;;;;;5014316;28;20208;-76
2022/01/06 11:44:23;;;;;;;6.25;2.42;;;12.90;99.20;;;;;;5022547;28;20205;-77
2022/01/06 11:46:52;;;;;;;5.57;2.30;;;12.40;98.60;;;;;;5017051;28;20815;-74
2022/01/06 11:49:32;;;;;;;4.15;2.00;;;11.50;99.10;;;;;;5027632;28;20334;-75
2022/01/06 11:52:07;;;;;;;5.32;2.15;;;10.50;99.90;;;;;;5004264;28;20730;-75
2022/01/06 11:54:47;;;;;;;3.72;2.00;;;10.40;99.90;;;;;;5027323;28;20203;-74
2022/01/06 11:57:14;;;;;;;4.43;2.38;;;10.90;99.90;;;;;;5029540;28;20265;-75
2022/01/06 11:59:41;;;;;;;6.43;2.60;;;11.10;99.90;;;;;;5027572;28;20224;-75
2022/01/06 12:02:08;;;;;;;5.75;2.50;;;11.20;99.90;;;;;;5014497;28;20221;-77
2022/01/06 12:04:38;;;;;;;5.88;2.30;;;11.20;99.90;;;;;;5028578;28;20351;-75
2022/01/06 12:07:07;;;;;;;4.68;2.80;;;11.60;99.90;;;;;;5026709;28;20618;-76
2022/01/06 12:09:35;;;;;;;4.88;2.42;;;12.40;99.10;;;;;;5029250;28;20233;-75
2022/01/06 12:12:04;;;;;;;5.82;2.10;;;12.40;97.00;;;;;;5029899;28;20204;-76
2022/01/06 12:14:32;;;;;;;3.58;1.90;;;12.50;97.60;;;;;;5028113;28;20201;-79
2022/01/06 12:17:05;;;;;;;5.95;2.20;;;13.00;96.50;;;;;;5025300;28;20298;-76
2022/01/06 12:19:32;;;;;;;5.63;2.30;;;13.00;96.80;;;;;;5015777;28;20222;-76
2022/01/06 12:21:59;;;;;;;3.00;2.40;;;13.10;96.00;;;;;;5022142;28;20233;-75
2022/01/06 12:24:26;;;;;;;62.65;35.50;;;12.60;95.70;;;;;;5026255;28;20281;-78
2022/01/06 12:26:55;;;;;;;7.05;4.43;;;12.60;99.80;;;;;;5029599;28;20611;-78
2022/01/06 12:29:25;;;;;;;7.07;3.53;;;12.70;96.60;;;;;;5028378;28;20229;-74
2022/01/06 12:32:02;;;;;;;4.65;2.85;;;12.90;96.20;;;;;;5027677;28;20210;-74
2022/01/06 12:34:29;;;;;;;4.45;2.50;;;12.80;96.00;;;;;;5018180;28;20272;-76
2022/01/06 12:36:56;;;;;;;4.40;2.00;;;13.20;96.10;;;;;;5029738;28;20197;-75
2022/01/06 12:39:23;;;;;;;4.55;2.30;;;13.40;94.00;;;;;;5017887;28;20249;-76
2022/01/06 12:41:52;;;;;;;4.28;2.08;;;13.30;93.30;;;;;;5024111;28;20289;-75
2022/01/06 12:44:22;;;;;;;4.07;2.38;;;13.40;93.50;;;;;;5028218;28;20206;-78
2022/01/06 12:46:50;;;;;;;5.00;2.55;;;13.60;92.80;;;;;;5021944;28;20202;-77
2022/01/06 12:49:20;;;;;;;3.55;1.70;;;13.80;92.70;;;;;;5017913;28;20846;-78
2022/01/06 12:51:48;;;;;;;4.78;1.95;;;13.80;92.80;;;;;;5019484;28;20544;-78
2022/01/06 12:54:18;;;;;;;5.15;2.08;;;14.00;91.70;;;;;;5017113;28;20664;-78
2022/01/06 12:56:50;;;;;;;6.28;2.50;;;13.50;92.20;;;;;;5023847;28;20288;-78
2022/01/06 12:59:23;;;;;;;5.03;2.58;;;12.80;92.30;;;;;;5029604;28;20280;-79
2022/01/06 13:01:54;;;;;;;5.78;2.78;;;12.00;93.10;;;;;;5030065;28;20197;-78
2022/01/06 13:04:25;;;;;;;5.35;1.95;;;11.60;94.00;;;;;;5030140;28;20216;-79
2022/01/06 13:06:55;;;;;;;6.03;2.10;;;11.70;94.10;;;;;;5017907;28;20663;-79